createdAt,value
2022-09-05T00:01:28.194Z,56.47
2022-09-05T00:04:21.333Z,56.21
2022-09-05T00:06:57.080Z,56.41
2022-09-05T00:09:44.734Z,56.50
2022-09-05T00:12:13.734Z,56.51
2022-09-05T00:15:17.291Z,56.63
2022-09-05T00:19:37.040Z,56.92
2022-09-05T00:24:21.928Z,56.88
2022-09-05T00:24:26.772Z,56.65
2022-09-05T00:26:56.714Z,56.54
2022-09-05T00:31:08.755Z,57.02
2022-09-05T00:32:55.530Z,56.94
2022-09-05T00:35:39.412Z,57.00
2022-09-05T00:38:16.576Z,56.86
2022-09-05T00:40:48.044Z,57.03
2022-09-05T00:43:20.885Z,57.51
2022-09-05T00:45:53.642Z,57.46
2022-09-05T00:48:29.429Z,57.25
2022-09-05T00:51:10.066Z,57.40
2022-09-05T00:53:45.774Z,57.14
2022-09-05T00:56:46.496Z,57.73
2022-09-05T00:59:58.519Z,57.39
2022-09-05T01:02:52.445Z,57.90
2022-09-05T01:05:32.549Z,57.75
2022-09-05T01:08:18.407Z,58.40
2022-09-05T01:10:53.340Z,57.77
2022-09-05T01:13:32.881Z,58.04
2022-09-05T01:16:10.683Z,58.18
2022-09-05T01:18:52.415Z,57.84
2022-09-05T01:21:55.120Z,58.24
2022-09-05T01:24:54.082Z,58.22
2022-09-05T01:29:13.363Z,58.42
2022-09-05T01:30:44.174Z,58.41
2022-09-05T01:33:20.556Z,58.45
2022-09-05T01:36:12.349Z,58.67
2022-09-05T01:39:16.537Z,59.03
2022-09-05T01:41:46.081Z,59.18
2022-09-05T01:44:28.939Z,59.08
2022-09-05T01:47:07.639Z,58.96
2022-09-05T01:49:56.138Z,58.85
2022-09-05T01:52:57.399Z,59.12
2022-09-05T01:56:03.926Z,59.46
2022-09-05T01:58:34.286Z,59.45
2022-09-05T02:01:26.623Z,59.31
2022-09-05T02:04:26.167Z,59.63
2022-09-05T02:07:19.901Z,59.38
2022-09-05T02:10:07.993Z,59.42
2022-09-05T02:12:44.784Z,59.91
2022-09-05T02:15:40.616Z,59.61
2022-09-05T02:18:19.352Z,59.34
2022-09-05T02:20:53.423Z,60.08
2022-09-05T02:23:41.898Z,59.99
2022-09-05T02:26:18.624Z,59.87
2022-09-05T02:28:55.992Z,59.96
2022-09-05T02:31:32.678Z,60.12
2022-09-05T02:34:12.292Z,59.93
2022-09-05T02:36:46.063Z,59.99
2022-09-05T02:45:03.179Z,60.42
2022-09-05T02:45:12.662Z,60.37
2022-09-05T02:45:26.899Z,60.51
2022-09-05T02:48:14.806Z,60.38
2022-09-05T02:57:23.893Z,60.63
2022-09-05T02:57:33.106Z,60.60
2022-09-05T02:57:36.697Z,61.18
2022-09-05T02:59:52.271Z,60.77
2022-09-05T03:02:28.303Z,61.29
2022-09-05T03:05:04.723Z,61.01
2022-09-05T03:07:53.642Z,61.20
2022-09-05T03:10:53.157Z,61.33
2022-09-05T03:13:54.283Z,61.22
2022-09-05T03:16:58.583Z,61.49
2022-09-05T03:20:05.778Z,61.73
2022-09-05T03:23:16.126Z,62.48
2022-09-05T03:26:09.526Z,61.99
2022-09-05T03:29:15.516Z,62.38
2022-09-05T03:32:17.748Z,62.41
2022-09-05T03:35:22.644Z,62.60
2022-09-05T03:38:17.492Z,62.78
2022-09-05T03:40:58.490Z,62.44
2022-09-05T03:43:59.405Z,62.87
2022-09-05T03:46:46.194Z,62.85
2022-09-05T03:53:58.478Z,62.76
2022-09-05T03:57:10.481Z,62.65
2022-09-05T03:57:14.133Z,62.83
2022-09-05T03:58:57.833Z,63.24
2022-09-05T04:03:00.053Z,63.32
2022-09-05T04:08:11.330Z,63.11
2022-09-05T04:08:27.566Z,63.01
2022-09-05T04:10:28.109Z,63.12
2022-09-05T04:13:02.304Z,62.89
2022-09-05T04:15:37.050Z,63.43
2022-09-05T04:18:13.146Z,63.41
2022-09-05T04:20:49.003Z,63.57
2022-09-05T04:23:27.659Z,63.22
2022-09-05T04:26:11.971Z,63.46
2022-09-05T04:29:02.714Z,63.28
2022-09-05T04:31:43.047Z,63.39
2022-09-05T04:34:26.785Z,63.62
2022-09-05T04:37:03.759Z,64.09
2022-09-05T04:39:33.224Z,64.01
2022-09-05T04:42:17.220Z,63.95
2022-09-05T04:44:51.191Z,64.25
2022-09-05T04:47:29.164Z,63.98
2022-09-05T04:50:02.350Z,64.00
2022-09-05T04:52:50.497Z,64.15
2022-09-05T04:55:22.577Z,63.85
2022-09-05T04:57:56.354Z,64.03
2022-09-05T05:05:58.627Z,64.12
2022-09-05T05:06:14.076Z,64.00
2022-09-05T05:06:44.072Z,64.35
2022-09-05T05:09:07.515Z,63.91
2022-09-05T05:17:54.816Z,63.76
2022-09-05T05:17:56.381Z,65.01
2022-09-05T05:18:14.682Z,64.63
2022-09-05T05:20:39.808Z,64.87
2022-09-05T05:23:12.108Z,64.92
2022-09-05T05:25:47.509Z,64.86
2022-09-05T05:28:24.686Z,64.43
2022-09-05T05:30:58.282Z,64.71
2022-09-05T05:33:33.689Z,64.91
2022-09-05T05:36:03.481Z,64.60
2022-09-05T05:38:39.476Z,64.14
2022-09-05T05:41:16.699Z,64.04
2022-09-05T05:43:46.756Z,64.10
2022-09-05T05:46:28.398Z,63.60
2022-09-05T05:49:09.554Z,63.79
2022-09-05T05:52:01.248Z,63.82
2022-09-05T05:54:38.384Z,63.24
2022-09-05T05:57:53.329Z,63.44
2022-09-05T06:00:27.983Z,63.33
2022-09-05T06:03:43.558Z,64.00
2022-09-05T06:06:47.948Z,63.44
2022-09-05T06:14:50.772Z,63.92
2022-09-05T06:14:54.847Z,63.96
2022-09-05T06:16:24.706Z,64.07
2022-09-05T06:19:13.899Z,63.56
2022-09-05T06:22:14.968Z,63.54
2022-09-05T06:25:17.713Z,63.34
2022-09-05T06:28:18.056Z,63.81
2022-09-05T06:31:30.514Z,64.33
2022-09-05T06:34:00.907Z,64.25
2022-09-05T06:36:54.270Z,63.88
2022-09-05T06:39:43.788Z,63.22
2022-09-05T06:42:42.178Z,63.36
2022-09-05T06:45:32.698Z,62.98
2022-09-05T06:48:14.567Z,62.70
2022-09-05T06:52:01.079Z,62.72
2022-09-05T06:55:03.542Z,62.83
2022-09-05T06:57:59.954Z,61.97
2022-09-05T07:00:33.722Z,61.68
2022-09-05T07:03:20.707Z,60.73
2022-09-05T07:05:57.370Z,60.53
2022-09-05T07:08:37.184Z,59.74
2022-09-05T07:11:16.944Z,59.32
2022-09-05T07:13:57.035Z,59.49
2022-09-05T07:16:38.958Z,58.60
2022-09-05T07:19:27.053Z,58.45
2022-09-05T07:22:45.904Z,58.15
2022-09-05T07:25:08.771Z,57.57
2022-09-05T07:28:27.078Z,57.73
2022-09-05T07:30:32.054Z,57.09
2022-09-05T07:33:03.296Z,56.17
2022-09-05T07:35:42.001Z,56.54
2022-09-05T07:38:16.160Z,55.91
2022-09-05T07:40:51.685Z,55.44
2022-09-05T07:43:26.742Z,55.21
2022-09-05T07:46:11.548Z,55.71
2022-09-05T07:48:44.312Z,55.20
2022-09-05T07:56:49.315Z,55.29
2022-09-05T07:56:58.900Z,54.48
2022-09-05T07:59:56.521Z,54.23
2022-09-05T08:02:24.665Z,54.55
2022-09-05T08:04:52.596Z,54.70
2022-09-05T08:07:48.273Z,54.65
2022-09-05T08:10:15.963Z,54.86
2022-09-05T08:13:22.981Z,55.22
2022-09-05T08:16:09.984Z,54.84
2022-09-05T08:18:38.598Z,54.47
2022-09-05T08:21:13.421Z,53.77
2022-09-05T08:23:52.690Z,53.43
2022-09-05T08:26:32.516Z,53.24
2022-09-05T08:29:09.481Z,52.76
2022-09-05T08:31:43.593Z,52.32
2022-09-05T08:34:18.539Z,52.25
2022-09-05T08:37:00.777Z,51.79
2022-09-05T08:39:29.616Z,51.04
2022-09-05T08:42:28.254Z,50.59
2022-09-05T08:46:40.903Z,49.91
2022-09-05T08:48:14.954Z,50.57
2022-09-05T08:51:12.649Z,51.21
2022-09-05T08:54:01.269Z,51.33
2022-09-05T08:56:35.291Z,51.68
2022-09-05T08:59:32.111Z,51.96
2022-09-05T09:02:48.085Z,52.21
2022-09-05T09:06:12.254Z,51.66
2022-09-05T09:08:29.548Z,51.53
2022-09-05T09:11:04.293Z,50.91
2022-09-05T09:13:52.266Z,50.57
2022-09-05T09:16:30.857Z,50.66
2022-09-05T09:19:13.322Z,50.07
2022-09-05T09:21:52.741Z,50.33
2022-09-05T09:24:34.353Z,49.79
2022-09-05T09:27:06.054Z,49.24
2022-09-05T09:29:39.088Z,49.78
2022-09-05T09:32:13.271Z,49.90
2022-09-05T09:34:52.863Z,49.60
2022-09-05T09:37:59.316Z,48.61
2022-09-05T09:41:10.996Z,48.95
2022-09-05T09:44:01.372Z,48.81
2022-09-05T09:46:40.298Z,49.14
2022-09-05T09:49:27.377Z,48.17
2022-09-05T09:52:32.948Z,48.73
2022-09-05T09:55:46.338Z,47.71
2022-09-05T09:58:31.810Z,47.96
2022-09-05T10:01:36.739Z,47.84
2022-09-05T10:10:34.053Z,48.13
2022-09-05T10:10:56.268Z,47.34
2022-09-05T10:14:49.168Z,46.80
2022-09-05T10:17:45.898Z,46.89
2022-09-05T10:20:43.575Z,47.07
2022-09-05T10:23:44.258Z,46.84
2022-09-05T10:26:54.013Z,46.86
2022-09-05T10:29:44.514Z,45.97
2022-09-05T10:35:07.967Z,45.70
2022-09-05T10:35:22.484Z,46.34
2022-09-05T10:37:57.845Z,45.92
2022-09-05T10:40:29.356Z,45.98
2022-09-05T10:43:13.311Z,45.60
2022-09-05T10:45:49.046Z,45.32
2022-09-05T10:48:24.317Z,46.03
2022-09-05T10:51:00.966Z,45.52
2022-09-05T10:53:43.961Z,45.25
2022-09-05T10:56:15.496Z,45.84
2022-09-05T11:02:18.693Z,44.97
2022-09-05T11:02:29.326Z,44.48
2022-09-05T11:04:50.442Z,45.14
2022-09-05T11:07:27.812Z,44.82
2022-09-05T11:10:08.075Z,44.83
2022-09-05T11:12:59.404Z,44.62
2022-09-05T11:15:35.712Z,44.94
2022-09-05T11:18:06.256Z,44.54
2022-09-05T11:20:53.768Z,43.67
2022-09-05T11:23:26.888Z,43.54
2022-09-05T11:26:01.975Z,44.03
2022-09-05T11:28:53.746Z,43.31
2022-09-05T11:32:04.264Z,43.71
2022-09-05T11:40:00.116Z,43.91
2022-09-05T11:40:08.285Z,44.05
2022-09-05T11:41:19.935Z,43.46
2022-09-05T11:44:26.254Z,44.34
2022-09-05T11:47:14.285Z,44.57
2022-09-05T11:50:39.216Z,43.83
2022-09-05T11:53:42.102Z,44.20
2022-09-05T11:56:49.491Z,43.93
2022-09-05T12:00:10.745Z,43.68
2022-09-05T12:03:11.755Z,43.97
2022-09-05T12:06:29.670Z,43.74
2022-09-05T12:09:04.359Z,43.49
2022-09-05T12:11:55.132Z,43.90
2022-09-05T12:14:36.595Z,43.95
2022-09-05T12:17:16.973Z,42.91
2022-09-05T12:19:58.172Z,43.66
2022-09-05T12:22:30.360Z,43.48
2022-09-05T12:27:38.831Z,43.73
2022-09-05T12:29:27.408Z,43.37
2022-09-05T12:32:36.459Z,43.26
2022-09-05T12:36:02.926Z,42.54
2022-09-05T12:40:43.570Z,42.98
2022-09-05T12:40:58.218Z,43.61
2022-09-05T12:43:39.339Z,43.84
2022-09-05T12:45:50.289Z,43.94
2022-09-05T12:48:39.120Z,44.10
2022-09-05T12:51:11.869Z,44.02
2022-09-05T12:53:50.682Z,43.36
2022-09-05T12:57:50.344Z,43.36
2022-09-05T13:03:04.625Z,43.53
2022-09-05T13:03:13.208Z,43.76
2022-09-05T13:05:13.670Z,44.38
2022-09-05T13:07:44.590Z,44.12
2022-09-05T13:11:11.471Z,43.33
2022-09-05T13:14:57.457Z,43.16
2022-09-05T13:16:03.391Z,43.48
2022-09-05T13:18:39.453Z,43.00
2022-09-05T13:21:12.151Z,42.54
2022-09-05T13:23:48.661Z,42.18
2022-09-05T13:26:25.364Z,42.55
2022-09-05T13:29:09.810Z,42.08
2022-09-05T13:38:01.507Z,41.98
2022-09-05T13:38:12.570Z,42.08
2022-09-05T13:41:00.126Z,41.71
2022-09-05T13:43:36.454Z,41.14
2022-09-05T13:46:15.569Z,41.47
2022-09-05T13:51:43.898Z,41.46
2022-09-05T13:54:37.335Z,40.66
2022-09-05T13:57:37.013Z,40.63
2022-09-05T14:00:39.213Z,40.99
2022-09-05T14:03:38.380Z,40.93
2022-09-05T14:06:47.326Z,40.59
2022-09-05T14:09:35.471Z,41.20
2022-09-05T14:12:11.509Z,40.35
2022-09-05T14:17:57.650Z,40.88
2022-09-05T14:20:49.615Z,40.32
2022-09-05T14:23:21.851Z,40.81
2022-09-05T14:25:54.693Z,40.12
2022-09-05T14:28:28.018Z,40.15
2022-09-05T14:33:19.192Z,39.75
2022-09-05T14:37:41.990Z,39.81
2022-09-05T14:37:52.815Z,39.59
2022-09-05T14:40:49.848Z,39.41
2022-09-05T14:43:40.335Z,39.93
2022-09-05T14:46:28.176Z,39.46
2022-09-05T14:49:21.584Z,38.95
2022-09-05T14:51:52.318Z,39.25
2022-09-05T15:02:11.171Z,39.93
2022-09-05T15:02:53.744Z,39.57
2022-09-05T15:03:04.962Z,38.62
2022-09-05T15:05:41.004Z,39.43
2022-09-05T15:08:52.564Z,39.50
2022-09-05T15:12:20.854Z,39.30
2022-09-05T15:13:58.104Z,38.60
2022-09-05T15:16:26.992Z,38.88
2022-09-05T15:18:56.273Z,38.85
2022-09-05T15:21:34.106Z,38.63
2022-09-05T15:24:14.848Z,38.67
2022-09-05T15:26:55.813Z,38.82
2022-09-05T15:29:26.195Z,38.12
2022-09-05T15:31:58.954Z,38.63
2022-09-05T15:34:38.656Z,38.61
2022-09-05T15:37:26.085Z,39.34
2022-09-05T15:40:22.678Z,38.21
2022-09-05T15:42:59.291Z,38.24
2022-09-05T15:45:29.760Z,37.69
2022-09-05T15:48:09.391Z,37.33
2022-09-05T15:50:45.849Z,37.21
2022-09-05T15:53:24.867Z,38.00
2022-09-05T15:56:00.216Z,38.87
2022-09-05T15:58:53.950Z,38.97
2022-09-05T16:01:52.446Z,39.44
2022-09-05T16:10:34.880Z,38.99
2022-09-05T16:10:46.928Z,38.27
2022-09-05T16:10:49.692Z,38.17
2022-09-05T16:12:50.923Z,38.48
2022-09-05T16:18:39.916Z,37.72
2022-09-05T16:23:18.802Z,37.75
2022-09-05T16:23:30.259Z,37.52
2022-09-05T16:24:07.183Z,37.60
2022-09-05T16:26:42.819Z,37.42
2022-09-05T16:29:25.296Z,37.47
2022-09-05T16:32:09.513Z,38.81
2022-09-05T16:34:43.802Z,39.23
2022-09-05T16:37:16.175Z,39.50
2022-09-05T16:39:49.913Z,40.09
2022-09-05T16:42:24.027Z,40.02
2022-09-05T16:45:22.901Z,40.30
2022-09-05T16:48:05.096Z,40.40
2022-09-05T16:50:40.988Z,40.81
2022-09-05T16:53:30.543Z,40.63
2022-09-05T16:56:03.599Z,40.80
2022-09-05T16:58:34.802Z,41.24
2022-09-05T17:01:20.987Z,40.59
2022-09-05T17:03:55.613Z,40.34
2022-09-05T17:06:30.184Z,39.65
2022-09-05T17:09:13.550Z,39.68
2022-09-05T17:12:00.197Z,40.02
2022-09-05T17:14:35.266Z,40.40
2022-09-05T17:17:20.371Z,40.62
2022-09-05T17:20:07.254Z,40.58
2022-09-05T17:28:13.682Z,40.99
2022-09-05T17:29:27.754Z,41.32
2022-09-05T17:29:36.535Z,41.05
2022-09-05T17:31:57.054Z,41.33
2022-09-05T17:34:54.440Z,41.31
2022-09-05T17:38:11.566Z,41.89
2022-09-05T17:41:16.134Z,42.16
2022-09-05T17:43:47.459Z,42.63
2022-09-05T17:46:21.389Z,42.25
2022-09-05T17:49:19.719Z,42.12
2022-09-05T17:52:31.276Z,42.61
2022-09-05T17:55:00.951Z,42.47
2022-09-05T17:57:41.015Z,42.94
2022-09-05T18:00:48.665Z,43.39
2022-09-05T18:04:16.000Z,43.13
2022-09-05T18:07:00.626Z,43.15
2022-09-05T18:10:14.557Z,43.37
2022-09-05T18:13:13.284Z,44.09
2022-09-05T18:16:10.564Z,44.24
2022-09-05T18:19:32.293Z,44.34
2022-09-05T18:21:48.424Z,44.65
2022-09-05T18:24:33.370Z,44.73
2022-09-05T18:27:35.076Z,44.87
2022-09-05T18:30:09.437Z,45.04
2022-09-05T18:32:51.945Z,45.50
2022-09-05T18:35:36.714Z,45.53
2022-09-05T18:38:51.532Z,45.50
2022-09-05T18:41:22.256Z,46.08
2022-09-05T18:44:13.212Z,46.18
2022-09-05T18:46:47.791Z,46.48
2022-09-05T18:50:21.794Z,46.76
2022-09-05T18:52:17.223Z,47.16
2022-09-05T18:56:10.848Z,47.10
2022-09-05T18:57:49.958Z,47.23
2022-09-05T19:00:35.021Z,47.09
2022-09-05T19:03:24.957Z,47.49
2022-09-05T19:06:34.679Z,47.38
2022-09-05T19:08:49.752Z,47.43
2022-09-05T19:11:28.910Z,47.79
2022-09-05T19:14:25.637Z,47.87
2022-09-05T19:16:50.783Z,48.04
2022-09-05T19:19:24.948Z,48.49
2022-09-05T19:22:45.211Z,48.76
2022-09-05T19:24:46.566Z,48.65
2022-09-05T19:28:55.531Z,49.05
2022-09-05T19:36:58.630Z,49.13
2022-09-05T19:37:05.137Z,49.14
2022-09-05T19:37:13.896Z,48.67
2022-09-05T19:41:52.762Z,49.41
2022-09-05T19:47:25.947Z,49.90
2022-09-05T19:47:44.709Z,49.63
2022-09-05T19:47:57.536Z,50.25
2022-09-05T19:50:21.453Z,50.19
2022-09-05T19:53:02.605Z,50.29
2022-09-05T19:55:36.422Z,49.98
2022-09-05T19:58:19.237Z,50.42
2022-09-05T20:01:08.205Z,50.46
2022-09-05T20:03:42.592Z,50.89
2022-09-05T20:06:29.981Z,50.26
2022-09-05T20:09:14.241Z,50.56
2022-09-05T20:11:46.969Z,50.86
2022-09-05T20:14:24.245Z,50.61
2022-09-05T20:16:55.880Z,50.90
2022-09-05T20:19:28.809Z,51.02
2022-09-05T20:21:59.736Z,51.33
2022-09-05T20:24:49.195Z,51.19
2022-09-05T20:27:17.506Z,51.21
2022-09-05T20:29:54.857Z,51.20
2022-09-05T20:32:30.493Z,51.54
2022-09-05T20:42:33.546Z,51.23
2022-09-05T20:43:24.418Z,51.46
2022-09-05T20:43:36.452Z,51.46
2022-09-05T20:43:58.959Z,51.43
2022-09-05T20:50:34.100Z,51.62
2022-09-05T20:54:14.019Z,51.37
2022-09-05T20:54:28.946Z,51.71
2022-09-05T20:55:38.007Z,51.85
2022-09-05T20:58:10.293Z,51.81
2022-09-05T21:00:39.690Z,51.81
2022-09-05T21:03:09.176Z,51.83
2022-09-05T21:05:40.003Z,51.91
2022-09-05T21:08:35.038Z,52.38
2022-09-05T21:11:04.798Z,52.25
2022-09-05T21:13:36.879Z,52.25
2022-09-05T21:16:22.866Z,52.96
2022-09-05T21:18:52.443Z,52.52
2022-09-05T21:21:28.327Z,52.76
2022-09-05T21:24:16.950Z,52.82
2022-09-05T21:26:50.583Z,53.05
2022-09-05T21:29:28.773Z,53.01
2022-09-05T21:32:08.536Z,53.02
2022-09-05T21:34:44.932Z,53.05
2022-09-05T21:37:14.698Z,53.65
2022-09-05T21:39:58.523Z,53.41
2022-09-05T21:44:32.177Z,53.51
2022-09-05T21:47:38.727Z,54.03
2022-09-05T21:48:14.877Z,54.00
2022-09-05T21:50:46.267Z,53.87
2022-09-05T21:57:53.681Z,54.08
2022-09-05T21:59:19.660Z,54.32
2022-09-05T21:59:25.237Z,54.29
2022-09-05T22:02:05.320Z,54.59
2022-09-05T22:04:37.164Z,54.94
2022-09-05T22:07:13.745Z,54.98
2022-09-05T22:09:41.548Z,55.30
2022-09-05T22:12:17.435Z,55.94
2022-09-05T22:15:00.916Z,55.76
2022-09-05T22:17:48.026Z,56.20
2022-09-05T22:20:17.934Z,56.56
2022-09-05T22:22:56.477Z,56.68
2022-09-05T22:25:28.321Z,56.85
2022-09-05T22:28:00.774Z,57.17
2022-09-05T22:30:28.585Z,56.89
2022-09-05T22:32:57.785Z,57.09
2022-09-05T22:35:28.503Z,57.06
2022-09-05T22:38:01.437Z,57.45
2022-09-05T22:40:31.072Z,57.70
2022-09-05T22:43:00.674Z,57.50
2022-09-05T22:45:29.729Z,58.00
2022-09-05T22:47:59.295Z,58.05
2022-09-05T22:50:27.595Z,57.91
2022-09-05T22:52:55.322Z,58.41
2022-09-05T22:55:23.154Z,58.79
2022-09-05T22:57:50.973Z,58.78
2022-09-05T23:00:18.989Z,58.96
2022-09-05T23:02:51.619Z,58.79
2022-09-05T23:05:21.668Z,58.90
2022-09-05T23:07:49.535Z,59.08
2022-09-05T23:10:17.910Z,59.39
2022-09-05T23:12:46.059Z,59.60
2022-09-05T23:15:14.077Z,59.48
2022-09-05T23:17:42.019Z,59.74
2022-09-05T23:20:11.452Z,59.92
2022-09-05T23:22:42.925Z,59.92
2022-09-05T23:25:11.102Z,60.31
2022-09-05T23:27:39.636Z,60.71
2022-09-05T23:30:09.489Z,60.86
2022-09-05T23:32:37.505Z,61.01
2022-09-05T23:35:05.914Z,60.93
2022-09-05T23:37:33.772Z,60.77
2022-09-05T23:40:03.408Z,61.05
2022-09-05T23:42:31.252Z,61.34
2022-09-05T23:44:59.025Z,60.99
2022-09-05T23:47:28.980Z,61.52
2022-09-05T23:49:57.434Z,61.81
2022-09-05T23:52:25.202Z,61.85
2022-09-05T23:54:52.973Z,61.87
2022-09-05T23:57:24.344Z,61.87
2022-09-05T23:59:52.880Z,62.46
